Time;durP1;ratioP1;P1;durP2;ratioP2;P2;SDS_P1;SDS_P2;PMS_P1;PMS_P2;Temp;Humidity;BMP_temperature;BMP_pressure;BME280_temperature;BME280_humidity;BME280_pressure;Samples;Min_cycle;Max_cycle;Signal;HPM_P1;HPM_P2
2021/12/01 00:02:20;;;;;;;5.53;4.90;;;10.20;99.90;;;;;;5000020;28;20239;-54
2021/12/01 00:04:47;;;;;;;6.50;5.07;;;10.20;99.90;;;;;;4999009;28;20229;-53
2021/12/01 00:07:14;;;;;;;5.90;4.70;;;10.20;99.90;;;;;;4995912;28;20956;-51
2021/12/01 00:09:41;;;;;;;5.87;5.27;;;10.20;99.90;;;;;;4999488;28;20338;-52
2021/12/01 00:12:08;;;;;;;5.53;4.87;;;10.20;99.90;;;;;;4994480;28;20299;-53
2021/12/01 00:14:35;;;;;;;5.20;4.70;;;10.20;99.90;;;;;;4995606;28;20266;-52
2021/12/01 00:17:02;;;;;;;4.53;4.03;;;10.20;99.90;;;;;;4994380;28;20312;-53
2021/12/01 00:19:30;;;;;;;6.00;4.07;;;10.20;99.90;;;;;;4995721;28;20292;-54
2021/12/01 00:21:57;;;;;;;4.87;4.07;;;10.20;99.90;;;;;;4999086;28;20193;-53
2021/12/01 00:24:24;;;;;;;4.37;3.70;;;10.20;99.90;;;;;;4996789;28;20274;-55
2021/12/01 00:26:51;;;;;;;4.90;4.10;;;10.30;99.90;;;;;;4995312;28;20295;-54
2021/12/01 00:29:18;;;;;;;3.77;3.47;;;10.20;99.90;;;;;;4998080;28;20676;-53
2021/12/01 00:31:45;;;;;;;5.30;3.97;;;10.30;99.90;;;;;;4995861;28;20208;-54
2021/12/01 00:34:12;;;;;;;3.80;3.43;;;10.30;99.90;;;;;;4998554;28;20208;-54
2021/12/01 00:36:39;;;;;;;4.87;3.10;;;10.30;99.90;;;;;;5010713;28;20310;-52
2021/12/01 00:39:06;;;;;;;3.90;3.13;;;10.30;99.90;;;;;;4997426;28;20689;-55
2021/12/01 00:41:33;;;;;;;5.60;2.63;;;10.30;99.90;;;;;;4997113;28;20239;-54
2021/12/01 00:44:00;;;;;;;3.33;3.00;;;10.30;99.90;;;;;;4995852;28;20240;-52
2021/12/01 00:46:40;;;;;;;3.67;2.90;;;10.30;99.90;;;;;;4996514;28;21593;-55
2021/12/01 00:49:08;;;;;;;4.93;3.83;;;10.30;99.90;;;;;;4998141;28;20200;-53
2021/12/01 00:51:35;;;;;;;3.07;2.77;;;10.40;99.90;;;;;;4997720;28;20251;-52
2021/12/01 00:54:02;;;;;;;3.20;2.90;;;10.40;99.90;;;;;;4997279;28;20236;-53
2021/12/01 00:56:29;;;;;;;4.80;3.33;;;10.40;99.90;;;;;;4994949;28;20205;-54
2021/12/01 00:58:56;;;;;;;3.47;2.50;;;10.40;99.90;;;;;;4994728;28;20305;-55
2021/12/01 01:01:22;;;;;;;2.33;1.90;;;10.40;99.90;;;;;;4996386;28;20223;-52
2021/12/01 01:03:50;;;;;;;3.30;1.60;;;10.40;99.90;;;;;;4998462;28;20212;-54
2021/12/01 01:06:16;;;;;;;1.70;1.60;;;10.40;99.90;;;;;;4997667;28;20290;-54
2021/12/01 01:08:45;;;;;;;2.57;1.30;;;10.40;99.90;;;;;;4995909;28;20205;-53
2021/12/01 01:16:22;;;;;;;1.87;1.30;;;10.30;99.90;;;;;;4996158;28;20217;-53
2021/12/01 01:16:50;;;;;;;3.13;1.50;;;10.30;99.90;;;;;;4994797;28;20212;-55
2021/12/01 01:19:19;;;;;;;1.50;1.40;;;10.30;99.90;;;;;;4998352;28;20232;-54
2021/12/01 01:21:49;;;;;;;4.07;2.00;;;10.30;99.90;;;;;;4995779;28;20751;-52
2021/12/01 01:24:17;;;;;;;1.70;1.40;;;10.20;99.90;;;;;;4996889;28;20284;-53
2021/12/01 01:26:45;;;;;;;1.53;1.37;;;10.20;99.90;;;;;;4994469;28;20295;-55
2021/12/01 01:29:12;;;;;;;1.80;1.43;;;10.20;99.90;;;;;;4996541;28;20231;-55
2021/12/01 01:31:39;;;;;;;2.33;2.00;;;10.20;99.90;;;;;;4995565;28;20233;-53
2021/12/01 01:34:06;;;;;;;5.07;2.27;;;10.20;99.90;;;;;;4996712;28;20210;-54
2021/12/01 01:36:33;;;;;;;2.00;1.80;;;10.10;99.90;;;;;;4995467;28;20602;-52
2021/12/01 01:39:00;;;;;;;2.20;2.00;;;10.10;99.90;;;;;;4995500;28;20973;-52
2021/12/01 01:41:27;;;;;;;2.70;2.30;;;10.20;99.90;;;;;;4997017;28;20308;-53
2021/12/01 01:43:54;;;;;;;3.47;2.43;;;10.10;99.90;;;;;;4996889;28;20731;-53
2021/12/01 01:46:20;;;;;;;3.67;2.47;;;10.10;99.90;;;;;;4998033;28;20671;-54
2021/12/01 01:48:55;;;;;;;2.83;2.53;;;10.10;99.90;;;;;;4995958;28;20220;-52
2021/12/01 01:51:25;;;;;;;3.57;2.87;;;10.00;99.90;;;;;;4997629;28;20309;-51
2021/12/01 01:53:54;;;;;;;4.60;3.63;;;10.00;99.90;;;;;;4997999;28;20247;-51
2021/12/01 01:56:22;;;;;;;4.07;3.37;;;10.00;99.90;;;;;;4999499;28;20273;-49
2021/12/01 01:58:50;;;;;;;3.40;3.07;;;9.90;99.90;;;;;;4998351;28;20307;-52
2021/12/01 02:04:03;;;;;;;3.90;3.50;;;9.90;99.90;;;;;;4996883;28;20209;-51
2021/12/01 02:06:32;;;;;;;3.63;3.20;;;9.90;99.90;;;;;;5000351;28;20295;-51
2021/12/01 02:08:59;;;;;;;3.77;3.10;;;9.80;99.90;;;;;;4998793;28;20678;-50
2021/12/01 02:11:28;;;;;;;4.03;3.60;;;9.80;99.90;;;;;;4999733;28;22377;-50
2021/12/01 02:13:56;;;;;;;3.10;2.80;;;9.70;99.90;;;;;;4995345;28;20331;-50
2021/12/01 02:16:24;;;;;;;4.00;3.17;;;9.70;99.90;;;;;;4998218;28;20219;-51
2021/12/01 02:18:51;;;;;;;4.07;3.13;;;9.70;99.90;;;;;;4997448;28;20224;-52
2021/12/01 02:21:27;;;;;;;3.67;3.07;;;9.70;99.90;;;;;;4999762;28;20539;-49
2021/12/01 02:24:01;;;;;;;3.37;3.07;;;9.60;99.90;;;;;;4999276;28;20218;-52
2021/12/01 02:26:32;;;;;;;3.03;2.67;;;9.60;99.90;;;;;;4997726;28;20237;-54
2021/12/01 02:29:03;;;;;;;3.77;2.70;;;9.60;99.90;;;;;;5000807;28;20445;-51
2021/12/01 02:31:33;;;;;;;2.97;2.53;;;9.50;99.90;;;;;;5001453;28;20974;-50
2021/12/01 02:34:10;;;;;;;2.60;2.40;;;9.50;99.90;;;;;;4998958;28;20574;-51
2021/12/01 02:36:38;;;;;;;4.40;2.60;;;9.50;99.90;;;;;;4999172;28;20309;-51
2021/12/01 02:39:09;;;;;;;4.23;2.30;;;9.50;99.90;;;;;;4999697;28;20318;-50
2021/12/01 02:41:36;;;;;;;2.67;2.47;;;9.50;99.90;;;;;;4998404;28;20331;-52
2021/12/01 02:44:05;;;;;;;2.77;2.53;;;9.40;99.90;;;;;;4998593;28;20378;-50
2021/12/01 02:46:32;;;;;;;3.07;2.77;;;9.40;99.90;;;;;;4997030;28;20221;-50
2021/12/01 02:49:00;;;;;;;3.63;2.47;;;9.40;99.90;;;;;;4998951;28;20804;-49
2021/12/01 02:51:28;;;;;;;2.50;2.30;;;9.40;99.90;;;;;;4999904;28;20604;-50
2021/12/01 02:53:56;;;;;;;2.90;2.60;;;9.30;99.90;;;;;;5012783;28;20290;-50
2021/12/01 02:56:23;;;;;;;3.40;3.10;;;9.30;99.90;;;;;;4998140;28;20321;-50
2021/12/01 02:58:51;;;;;;;2.97;2.30;;;9.30;99.90;;;;;;4998331;28;20848;-51
2021/12/01 03:01:23;;;;;;;2.40;2.20;;;9.30;99.90;;;;;;4997557;28;20233;-51
2021/12/01 03:03:51;;;;;;;3.40;2.90;;;9.30;99.90;;;;;;5000147;28;20197;-50
2021/12/01 03:06:21;;;;;;;2.93;2.07;;;9.30;99.90;;;;;;4999001;28;20277;-49
2021/12/01 03:08:48;;;;;;;2.30;2.10;;;9.20;99.90;;;;;;4997000;28;20293;-52
2021/12/01 03:11:15;;;;;;;2.33;2.13;;;9.20;99.90;;;;;;4997193;28;20244;-51
2021/12/01 03:13:43;;;;;;;2.17;1.97;;;9.20;99.90;;;;;;4999185;28;20310;-50
2021/12/01 03:16:10;;;;;;;3.90;2.60;;;9.20;99.90;;;;;;4997783;28;20212;-51
2021/12/01 03:18:37;;;;;;;2.50;2.20;;;9.20;99.90;;;;;;4997022;28;20568;-51
2021/12/01 03:21:04;;;;;;;2.60;2.40;;;9.20;99.90;;;;;;4996554;28;20211;-48
2021/12/01 03:23:31;;;;;;;2.53;2.33;;;9.20;99.90;;;;;;4996648;28;20293;-51
2021/12/01 03:25:58;;;;;;;2.50;2.27;;;9.20;99.90;;;;;;4997368;28;20199;-52
2021/12/01 03:28:25;;;;;;;3.13;2.57;;;9.20;99.90;;;;;;4996932;28;20715;-51
2021/12/01 03:30:52;;;;;;;3.87;2.67;;;9.20;99.90;;;;;;4998248;28;20232;-52
2021/12/01 03:33:20;;;;;;;3.13;2.67;;;9.20;99.90;;;;;;4996889;28;20769;-50
2021/12/01 03:35:50;;;;;;;2.40;2.20;;;9.20;99.90;;;;;;4996601;28;20210;-50
2021/12/01 03:38:19;;;;;;;3.20;2.80;;;9.20;99.90;;;;;;4996499;28;20239;-50
2021/12/01 03:40:47;;;;;;;2.97;2.50;;;9.10;99.90;;;;;;4998440;28;20321;-52
2021/12/01 03:43:13;;;;;;;3.43;2.93;;;9.10;99.90;;;;;;4996768;28;20535;-49
2021/12/01 03:45:41;;;;;;;3.90;3.07;;;9.20;99.90;;;;;;4998040;28;20220;-49
2021/12/01 03:48:09;;;;;;;3.20;2.90;;;9.10;99.90;;;;;;4997470;28;20207;-51
2021/12/01 03:50:37;;;;;;;3.30;3.00;;;9.10;99.90;;;;;;4997530;28;20304;-50
2021/12/01 03:53:05;;;;;;;2.77;2.53;;;9.10;99.90;;;;;;4995045;28;20917;-51
2021/12/01 03:55:34;;;;;;;2.57;2.37;;;9.10;99.90;;;;;;4999226;28;20240;-52
2021/12/01 03:58:01;;;;;;;2.50;1.73;;;9.20;99.90;;;;;;4994425;28;20239;-51
2021/12/01 04:00:28;;;;;;;2.63;2.23;;;9.10;99.90;;;;;;4997415;28;20233;-50
2021/12/01 04:02:55;;;;;;;3.10;2.37;;;9.10;99.90;;;;;;4995662;28;20304;-51
2021/12/01 04:05:23;;;;;;;2.10;1.90;;;9.10;99.90;;;;;;4997597;28;20197;-54
2021/12/01 04:07:49;;;;;;;2.27;1.97;;;9.10;99.90;;;;;;4998541;28;20240;-51
2021/12/01 04:10:18;;;;;;;2.37;2.07;;;9.10;99.90;;;;;;4997943;28;20206;-51
2021/12/01 04:12:46;;;;;;;1.83;1.73;;;9.20;99.90;;;;;;4994831;28;20701;-53
2021/12/01 04:15:14;;;;;;;2.03;1.50;;;9.20;99.90;;;;;;4996125;28;20246;-54
2021/12/01 04:17:42;;;;;;;2.70;1.93;;;9.20;99.90;;;;;;4995550;28;20330;-55
2021/12/01 04:20:12;;;;;;;2.33;1.87;;;9.20;99.90;;;;;;4997447;28;20252;-54
2021/12/01 04:22:41;;;;;;;2.13;1.53;;;9.20;99.90;;;;;;4996927;28;20588;-53
2021/12/01 04:25:08;;;;;;;4.03;2.07;;;9.20;99.90;;;;;;4995138;28;20294;-53
2021/12/01 04:27:36;;;;;;;2.50;2.00;;;9.20;99.90;;;;;;5008332;28;20232;-53
2021/12/01 04:30:07;;;;;;;2.13;1.67;;;9.10;99.90;;;;;;4995844;28;20233;-54
2021/12/01 04:32:34;;;;;;;2.50;1.53;;;9.10;99.90;;;;;;4996785;28;20287;-55
2021/12/01 04:35:01;;;;;;;1.90;1.70;;;9.10;99.90;;;;;;4996993;28;20205;-53
2021/12/01 04:37:28;;;;;;;2.10;1.90;;;9.00;99.90;;;;;;4995894;28;20311;-53
2021/12/01 04:39:55;;;;;;;1.97;1.70;;;9.00;99.90;;;;;;4996887;28;20346;-51
2021/12/01 04:42:22;;;;;;;2.37;2.10;;;9.00;99.90;;;;;;4995535;28;20328;-55
2021/12/01 04:44:49;;;;;;;2.80;1.90;;;8.90;99.90;;;;;;4995947;28;20245;-51
2021/12/01 04:47:18;;;;;;;2.03;1.83;;;8.90;99.90;;;;;;4994628;28;20231;-52
2021/12/01 04:49:45;;;;;;;2.10;1.90;;;8.90;99.90;;;;;;4994556;28;20202;-53
2021/12/01 04:52:12;;;;;;;2.73;2.00;;;8.80;99.90;;;;;;4997261;28;20230;-55
2021/12/01 04:54:39;;;;;;;2.87;1.83;;;8.80;99.90;;;;;;4997771;28;20210;-51
2021/12/01 04:57:07;;;;;;;2.23;2.00;;;8.80;99.90;;;;;;4995060;28;20300;-52
2021/12/01 04:59:35;;;;;;;2.00;1.80;;;8.80;99.90;;;;;;4996614;28;20302;-51
2021/12/01 05:02:02;;;;;;;3.10;2.20;;;8.70;99.90;;;;;;4994829;28;20893;-55
2021/12/01 05:04:29;;;;;;;4.10;2.40;;;8.70;99.90;;;;;;4996192;28;20341;-54
2021/12/01 05:06:56;;;;;;;2.67;2.13;;;8.70;99.90;;;;;;4995890;28;20360;-52
2021/12/01 05:09:23;;;;;;;2.53;2.33;;;8.60;99.90;;;;;;4996127;28;20231;-55
2021/12/01 05:11:50;;;;;;;3.63;2.53;;;8.60;99.90;;;;;;4996812;28;20668;-53
2021/12/01 05:14:17;;;;;;;3.30;2.37;;;8.60;99.90;;;;;;4996028;28;20244;-56
2021/12/01 05:16:44;;;;;;;2.73;2.37;;;8.60;99.90;;;;;;4994421;28;20267;-53
2021/12/01 05:19:12;;;;;;;2.70;2.40;;;8.60;99.90;;;;;;4994350;28;20217;-52
2021/12/01 05:21:41;;;;;;;3.27;2.50;;;8.60;99.90;;;;;;4996826;28;20254;-52
2021/12/01 05:24:08;;;;;;;2.87;2.50;;;8.50;99.90;;;;;;4995508;28;20208;-52
2021/12/01 05:26:36;;;;;;;2.00;1.77;;;8.50;99.90;;;;;;4999162;28;20230;-54
2021/12/01 05:29:05;;;;;;;3.03;2.30;;;8.50;99.90;;;;;;4999581;28;20205;-53
2021/12/01 05:31:32;;;;;;;3.43;2.23;;;8.60;99.90;;;;;;4998363;28;20213;-53
2021/12/01 05:34:00;;;;;;;2.33;2.10;;;8.60;99.90;;;;;;4998163;28;20205;-53
2021/12/01 05:36:27;;;;;;;2.77;1.80;;;8.60;99.90;;;;;;4999788;28;20244;-53
2021/12/01 05:38:54;;;;;;;2.27;1.97;;;8.50;99.90;;;;;;4999795;28;20223;-54
2021/12/01 05:41:21;;;;;;;3.63;2.03;;;8.60;99.90;;;;;;4998353;28;20260;-54
2021/12/01 05:43:48;;;;;;;2.73;1.80;;;8.60;99.90;;;;;;4998584;28;20257;-53
2021/12/01 05:46:15;;;;;;;2.23;1.43;;;8.60;99.90;;;;;;4997653;28;20752;-52
2021/12/01 05:48:42;;;;;;;2.27;1.90;;;8.50;99.90;;;;;;4998535;28;20547;-53
2021/12/01 05:51:09;;;;;;;2.13;1.93;;;8.50;99.90;;;;;;4999110;28;20295;-55
2021/12/01 05:53:36;;;;;;;2.03;1.27;;;8.60;99.90;;;;;;5000929;28;20660;-53
2021/12/01 05:56:04;;;;;;;1.70;1.60;;;8.60;99.90;;;;;;4999028;28;20246;-53
2021/12/01 05:58:31;;;;;;;2.80;1.60;;;8.60;99.90;;;;;;4997890;28;20729;-54
2021/12/01 06:00:58;;;;;;;1.43;1.30;;;8.50;99.90;;;;;;4998660;28;20224;-52
2021/12/01 06:03:24;;;;;;;2.27;1.50;;;8.50;99.90;;;;;;4999307;28;20213;-55
2021/12/01 06:05:51;;;;;;;1.47;1.30;;;8.50;99.90;;;;;;4997469;28;20276;-53
2021/12/01 06:08:18;;;;;;;1.73;1.57;;;8.50;99.90;;;;;;4998600;28;20261;-54
2021/12/01 06:10:45;;;;;;;2.10;1.57;;;8.50;99.90;;;;;;4997163;28;20674;-52
2021/12/01 06:13:16;;;;;;;1.33;1.10;;;8.50;99.90;;;;;;4998109;28;20725;-54
2021/12/01 06:15:48;;;;;;;1.67;1.30;;;8.50;99.90;;;;;;4997977;28;20202;-55
2021/12/01 06:18:15;;;;;;;1.97;1.50;;;8.60;99.90;;;;;;4999686;28;20207;-54
2021/12/01 06:20:42;;;;;;;2.73;1.40;;;8.60;99.90;;;;;;4998853;28;20214;-54
2021/12/01 06:23:10;;;;;;;2.80;1.47;;;8.60;99.90;;;;;;5000048;28;20286;-55
2021/12/01 06:25:37;;;;;;;1.90;1.57;;;8.60;99.90;;;;;;4999193;28;20201;-54
2021/12/01 06:28:04;;;;;;;1.50;1.40;;;8.60;99.90;;;;;;4997190;28;20288;-54
2021/12/01 06:30:36;;;;;;;3.17;1.90;;;8.50;99.90;;;;;;4995497;28;20612;-55
2021/12/01 06:33:04;;;;;;;2.00;1.80;;;8.50;99.90;;;;;;4997334;28;20292;-55
2021/12/01 06:35:31;;;;;;;1.73;1.63;;;8.50;99.90;;;;;;4995731;28;20237;-54
2021/12/01 06:37:58;;;;;;;2.10;1.77;;;8.50;99.90;;;;;;4999121;28;20299;-54
2021/12/01 06:40:26;;;;;;;1.90;1.47;;;8.60;99.90;;;;;;4996570;28;20312;-53
2021/12/01 06:42:53;;;;;;;1.50;1.40;;;8.60;99.90;;;;;;4994909;28;20212;-53
2021/12/01 06:45:21;;;;;;;2.10;1.53;;;8.60;99.90;;;;;;4997790;28;20680;-52
2021/12/01 06:47:48;;;;;;;2.67;1.80;;;8.70;99.90;;;;;;4994023;28;20201;-53
2021/12/01 06:50:16;;;;;;;3.80;2.00;;;8.60;99.90;;;;;;4999440;28;20197;-51
2021/12/01 06:52:43;;;;;;;2.33;1.83;;;8.60;99.90;;;;;;4997698;28;20577;-55
2021/12/01 06:55:10;;;;;;;2.33;2.03;;;8.60;99.90;;;;;;4995505;28;20751;-52
2021/12/01 06:57:37;;;;;;;2.53;2.20;;;8.60;99.90;;;;;;4998161;28;20730;-54
2021/12/01 07:00:08;;;;;;;4.33;2.43;;;8.60;99.90;;;;;;4999195;28;20275;-52
2021/12/01 07:02:35;;;;;;;2.70;2.23;;;8.70;99.90;;;;;;4995715;28;20210;-52
2021/12/01 07:05:02;;;;;;;3.07;2.53;;;8.70;99.90;;;;;;5000096;28;20197;-53
2021/12/01 07:07:29;;;;;;;2.50;2.30;;;8.70;99.90;;;;;;4998716;28;20347;-52
2021/12/01 07:09:56;;;;;;;2.23;2.00;;;8.70;99.90;;;;;;4997233;28;20240;-54
2021/12/01 07:12:23;;;;;;;2.70;2.50;;;8.70;99.90;;;;;;4995370;28;20254;-55
2021/12/01 07:14:51;;;;;;;3.07;2.23;;;8.70;99.90;;;;;;5000639;28;20952;-54
2021/12/01 07:17:19;;;;;;;2.30;2.10;;;8.80;99.90;;;;;;4995244;28;20286;-52
2021/12/01 07:19:48;;;;;;;2.70;2.20;;;8.80;99.90;;;;;;5000428;28;20659;-54
2021/12/01 07:22:15;;;;;;;1.80;1.70;;;8.70;99.90;;;;;;4998588;28;20268;-53
2021/12/01 07:24:43;;;;;;;1.93;1.83;;;8.80;99.90;;;;;;5000715;28;20202;-53
2021/12/01 07:27:14;;;;;;;4.77;2.40;;;8.80;99.90;;;;;;4996371;28;20680;-54
2021/12/01 07:29:42;;;;;;;2.53;2.33;;;8.90;99.90;;;;;;4999751;28;20214;-54
2021/12/01 07:32:10;;;;;;;2.30;2.10;;;8.90;99.90;;;;;;4995989;28;20272;-53
2021/12/01 07:34:43;;;;;;;4.70;2.23;;;8.90;99.90;;;;;;4996979;28;20205;-55
2021/12/01 07:37:15;;;;;;;6.70;2.37;;;8.90;99.90;;;;;;4996382;28;20266;-53
2021/12/01 07:42:18;;;;;;;2.53;2.27;;;9.00;99.90;;;;;;5027907;28;20779;-51
2021/12/01 07:44:46;;;;;;;3.37;2.80;;;9.00;99.90;;;;;;5037030;28;20206;-50
2021/12/01 07:47:13;;;;;;;4.50;2.70;;;9.00;99.90;;;;;;5035553;28;20200;-52
2021/12/01 07:49:40;;;;;;;4.53;3.33;;;9.10;99.90;;;;;;5035800;28;20211;-49
2021/12/01 07:52:08;;;;;;;3.57;2.70;;;9.10;99.90;;;;;;5035140;28;20638;-49
2021/12/01 07:54:37;;;;;;;4.20;3.10;;;9.10;99.90;;;;;;5039014;28;20540;-50
2021/12/01 07:57:04;;;;;;;3.53;3.03;;;9.10;99.90;;;;;;5037762;28;20218;-61
2021/12/01 07:59:31;;;;;;;4.47;3.23;;;9.10;99.90;;;;;;5030703;28;20281;-50
2021/12/01 08:01:57;;;;;;;5.20;3.40;;;9.10;99.90;;;;;;5031481;28;20232;-50
2021/12/01 08:04:25;;;;;;;3.87;3.47;;;9.10;99.90;;;;;;5027554;28;20197;-50
2021/12/01 08:06:54;;;;;;;4.00;3.23;;;9.10;99.90;;;;;;5031094;28;20222;-50
2021/12/01 08:09:21;;;;;;;7.27;3.50;;;9.20;99.90;;;;;;5034499;28;20533;-48
2021/12/01 08:11:48;;;;;;;4.20;3.80;;;9.20;99.90;;;;;;5033788;28;21790;-49
2021/12/01 08:14:15;;;;;;;3.60;3.30;;;9.20;99.90;;;;;;5033794;28;20303;-51
2021/12/01 08:16:42;;;;;;;4.57;3.57;;;9.20;99.90;;;;;;5036669;28;20579;-53
2021/12/01 08:19:09;;;;;;;4.07;3.43;;;9.30;99.90;;;;;;5037157;28;20667;-53
2021/12/01 08:21:37;;;;;;;3.83;3.47;;;9.30;99.90;;;;;;5037893;28;20270;-51
2021/12/01 08:24:10;;;;;;;4.97;3.40;;;9.30;99.90;;;;;;5034272;28;20284;-50
2021/12/01 08:26:38;;;;;;;4.80;3.60;;;9.30;99.90;;;;;;5032256;28;20205;-51
2021/12/01 08:29:05;;;;;;;4.20;3.80;;;9.30;99.90;;;;;;5027004;28;20201;-51
2021/12/01 08:31:32;;;;;;;4.43;4.03;;;9.30;99.90;;;;;;5029706;28;20236;-53
2021/12/01 08:34:00;;;;;;;6.37;4.50;;;9.30;99.90;;;;;;5032999;28;20207;-50
2021/12/01 08:36:27;;;;;;;4.30;3.90;;;9.30;99.90;;;;;;5030255;28;20212;-50
2021/12/01 08:38:54;;;;;;;4.77;3.73;;;9.40;99.90;;;;;;5032230;28;20224;-52
2021/12/01 08:41:21;;;;;;;5.37;4.10;;;9.40;99.90;;;;;;5028262;28;20370;-52
2021/12/01 08:43:48;;;;;;;5.70;4.97;;;9.40;99.90;;;;;;5025995;28;20225;-52
2021/12/01 08:46:16;;;;;;;5.93;4.03;;;9.40;99.90;;;;;;5015899;28;20651;-49
2021/12/01 08:48:43;;;;;;;6.13;3.83;;;9.40;99.90;;;;;;5031275;28;20199;-52
2021/12/01 08:51:11;;;;;;;5.57;3.80;;;9.40;99.90;;;;;;5030388;28;20209;-49
2021/12/01 08:53:41;;;;;;;5.57;3.90;;;9.50;99.90;;;;;;5031221;28;20331;-49
2021/12/01 08:56:10;;;;;;;5.83;3.00;;;9.50;99.90;;;;;;5023548;28;20212;-51
2021/12/01 08:58:37;;;;;;;6.57;2.97;;;9.60;99.90;;;;;;5029119;28;20310;-52
2021/12/01 09:01:04;;;;;;;3.23;2.60;;;9.60;99.90;;;;;;5037291;28;20275;-50
2021/12/01 09:03:31;;;;;;;4.37;2.67;;;9.60;99.90;;;;;;5037881;28;20342;-52
2021/12/01 09:05:58;;;;;;;2.80;2.30;;;9.60;99.90;;;;;;5035120;28;20287;-54
2021/12/01 09:08:25;;;;;;;2.87;2.50;;;9.50;99.90;;;;;;5034437;28;20302;-49
2021/12/01 09:10:55;;;;;;;2.93;2.63;;;9.50;99.90;;;;;;5020186;28;20237;-50
2021/12/01 09:13:23;;;;;;;3.20;2.27;;;9.50;99.90;;;;;;5034989;28;20649;-53
2021/12/01 09:15:53;;;;;;;4.27;2.13;;;9.50;99.90;;;;;;5033737;28;20297;-52
2021/12/01 09:18:21;;;;;;;2.97;1.80;;;9.50;99.90;;;;;;5038393;28;20201;-55
2021/12/01 09:20:48;;;;;;;4.87;1.63;;;9.50;99.90;;;;;;5037668;28;20563;-52
2021/12/01 09:23:15;;;;;;;2.07;1.00;;;9.50;99.90;;;;;;5037005;28;20283;-53
2021/12/01 09:25:43;;;;;;;2.93;1.20;;;9.40;99.90;;;;;;5037508;28;20230;-52
2021/12/01 09:28:14;;;;;;;4.03;0.93;;;9.30;99.90;;;;;;5036569;28;20212;-52
2021/12/01 09:30:41;;;;;;;3.37;0.93;;;9.30;99.90;;;;;;5034747;28;20201;-56
2021/12/01 09:33:08;;;;;;;3.53;1.00;;;9.30;99.90;;;;;;5035704;28;20253;-52
2021/12/01 09:35:35;;;;;;;5.73;1.30;;;9.30;99.90;;;;;;5036662;28;20232;-52
2021/12/01 09:38:02;;;;;;;3.00;1.00;;;9.40;99.90;;;;;;5035996;28;20220;-52
2021/12/01 09:40:29;;;;;;;6.33;1.30;;;9.20;99.90;;;;;;5035654;28;20363;-52
2021/12/01 09:42:56;;;;;;;7.57;1.57;;;9.20;99.90;;;;;;5037124;28;20289;-54
2021/12/01 09:45:25;;;;;;;6.00;1.13;;;9.20;99.90;;;;;;5034195;28;20308;-53
2021/12/01 09:47:52;;;;;;;4.17;1.23;;;9.20;99.90;;;;;;5034767;28;20644;-54
2021/12/01 09:50:20;;;;;;;4.90;1.33;;;9.20;99.90;;;;;;5033888;28;20201;-52
2021/12/01 09:52:47;;;;;;;3.80;1.00;;;9.20;99.90;;;;;;5033686;28;20209;-52
2021/12/01 09:55:16;;;;;;;8.20;1.33;;;9.40;99.90;;;;;;5036002;28;20301;-51
2021/12/01 09:58:11;;;;;;;8.60;1.00;;;9.40;99.90;;;;;;5036017;28;20579;-52
2021/12/01 10:00:42;;;;;;;6.43;0.83;;;9.40;99.90;;;;;;5031423;28;20212;-51
2021/12/01 10:03:09;;;;;;;6.23;1.53;;;9.50;99.90;;;;;;5038083;28;20283;-53
2021/12/01 10:06:11;;;;;;;3.50;0.70;;;9.60;99.90;;;;;;5039109;28;20197;-54
2021/12/01 10:08:49;;;;;;;2.23;0.60;;;9.50;99.90;;;;;;5037186;28;20236;-53
2021/12/01 10:11:25;;;;;;;6.03;0.97;;;9.70;99.90;;;;;;5030867;28;21028;-54
2021/12/01 10:13:55;;;;;;;4.03;0.60;;;9.90;99.90;;;;;;5030954;28;20557;-51
2021/12/01 10:16:28;;;;;;;1.87;0.50;;;10.00;99.90;;;;;;5032964;28;20203;-54
2021/12/01 10:19:01;;;;;;;5.23;0.60;;;10.10;99.90;;;;;;5029834;28;20211;-55
2021/12/01 10:21:28;;;;;;;2.87;0.67;;;10.20;99.90;;;;;;5035663;28;20312;-51
2021/12/01 10:23:58;;;;;;;4.60;0.90;;;10.40;99.90;;;;;;5037901;28;20744;-53
2021/12/01 10:26:31;;;;;;;3.47;0.60;;;10.50;99.90;;;;;;5037206;28;20212;-51
2021/12/01 10:29:02;;;;;;;4.13;0.60;;;10.40;99.90;;;;;;5035754;28;20663;-52
2021/12/01 10:31:52;;;;;;;2.37;0.37;;;10.40;99.90;;;;;;5033580;28;20339;-52
2021/12/01 10:34:26;;;;;;;2.17;0.60;;;10.10;99.90;;;;;;5033884;28;20208;-51
2021/12/01 10:37:15;;;;;;;2.90;0.90;;;9.90;99.90;;;;;;5036975;28;20334;-51
2021/12/01 10:40:10;;;;;;;4.07;0.73;;;9.90;99.90;;;;;;5025417;28;20325;-50
2021/12/01 10:42:55;;;;;;;4.97;0.87;;;9.90;99.90;;;;;;5033910;28;20295;-53
2021/12/01 10:45:47;;;;;;;3.73;0.80;;;9.70;99.90;;;;;;5016868;28;20249;-53
2021/12/01 10:48:25;;;;;;;2.00;0.50;;;9.70;99.90;;;;;;5033477;28;20200;-52
2021/12/01 10:50:53;;;;;;;3.20;0.80;;;9.60;99.90;;;;;;5019565;28;20288;-53
2021/12/01 10:53:23;;;;;;;4.03;1.00;;;9.40;99.90;;;;;;5038321;28;20256;-53
2021/12/01 10:55:55;;;;;;;1.60;0.63;;;9.50;99.90;;;;;;5037221;28;20721;-54
2021/12/01 10:58:39;;;;;;;1.83;0.50;;;9.60;99.90;;;;;;5035192;28;20603;-51
2021/12/01 11:01:19;;;;;;;8.33;0.90;;;9.70;99.90;;;;;;5036702;28;20243;-52
2021/12/01 11:03:47;;;;;;;3.17;0.60;;;9.90;99.90;;;;;;5037152;28;20193;-51
2021/12/01 11:06:20;;;;;;;3.47;0.70;;;9.80;99.90;;;;;;5029181;28;20328;-58
2021/12/01 11:08:55;;;;;;;4.80;1.53;;;9.60;99.90;;;;;;5035007;28;20236;-55
2021/12/01 11:11:24;;;;;;;2.77;0.80;;;9.60;99.90;;;;;;5029975;28;20589;-52
2021/12/01 11:14:16;;;;;;;2.93;0.60;;;9.50;99.90;;;;;;5018696;28;20208;-51
2021/12/01 11:16:44;;;;;;;3.10;0.70;;;9.60;99.90;;;;;;5035228;28;20283;-53
2021/12/01 11:19:13;;;;;;;3.90;0.93;;;9.50;99.90;;;;;;5032638;28;20395;-50
2021/12/01 11:21:40;;;;;;;4.43;1.37;;;9.60;99.90;;;;;;5030859;28;20227;-50
2021/12/01 11:24:12;;;;;;;5.47;1.07;;;9.60;99.90;;;;;;5029371;28;20611;-53
2021/12/01 11:26:44;;;;;;;4.23;0.70;;;9.50;99.90;;;;;;5034414;28;20244;-52
2021/12/01 11:29:31;;;;;;;2.50;0.77;;;9.50;99.90;;;;;;5034496;28;20210;-52
2021/12/01 11:31:59;;;;;;;2.70;0.80;;;9.70;99.90;;;;;;5031480;28;20296;-52
2021/12/01 11:34:26;;;;;;;2.80;0.57;;;9.50;99.90;;;;;;5031723;28;20871;-53
2021/12/01 11:36:53;;;;;;;6.30;0.90;;;9.50;99.90;;;;;;5033205;28;20312;-51
2021/12/01 11:39:27;;;;;;;5.93;0.87;;;9.50;99.90;;;;;;5034998;28;20223;-52
2021/12/01 11:41:54;;;;;;;4.47;0.83;;;9.50;99.90;;;;;;5033431;28;20273;-52
2021/12/01 11:44:25;;;;;;;5.03;1.23;;;9.50;99.90;;;;;;5037724;28;20208;-54
2021/12/01 11:46:52;;;;;;;6.20;1.10;;;9.50;99.90;;;;;;5032364;28;20331;-52
2021/12/01 11:49:21;;;;;;;2.33;0.77;;;9.60;99.90;;;;;;5036207;28;20202;-52
2021/12/01 11:51:55;;;;;;;5.20;0.80;;;9.60;99.90;;;;;;5035800;28;20686;-54
2021/12/01 11:54:24;;;;;;;5.27;0.87;;;9.70;99.90;;;;;;5008025;28;20204;-51
2021/12/01 11:57:06;;;;;;;6.83;0.87;;;9.70;99.90;;;;;;5034838;28;20666;-52
2021/12/01 11:59:38;;;;;;;3.80;0.90;;;9.60;99.90;;;;;;5033460;28;20322;-53
2021/12/01 12:02:07;;;;;;;3.33;0.53;;;9.60;99.90;;;;;;5033541;28;20990;-50
2021/12/01 12:04:39;;;;;;;5.00;0.90;;;9.70;99.90;;;;;;5034521;28;20205;-51
2021/12/01 12:07:08;;;;;;;5.73;1.07;;;9.70;99.90;;;;;;5036164;28;20207;-51
2021/12/01 12:10:32;;;;;;;7.47;1.10;;;9.70;99.90;;;;;;5037053;28;20208;-51
2021/12/01 12:13:04;;;;;;;6.30;1.30;;;9.70;99.90;;;;;;4994376;28;20637;-53
2021/12/01 12:15:41;;;;;;;9.27;1.20;;;9.70;99.90;;;;;;4992455;28;20243;-54
2021/12/01 12:18:13;;;;;;;5.10;0.90;;;9.70;99.90;;;;;;4992331;28;20210;-51
2021/12/01 12:20:54;;;;;;;4.17;0.83;;;9.80;99.90;;;;;;4992695;28;20236;-51
2021/12/01 12:23:33;;;;;;;2.37;0.97;;;9.90;99.90;;;;;;4991531;28;20280;-52
2021/12/01 12:26:00;;;;;;;6.43;1.00;;;9.80;99.90;;;;;;4995666;28;20240;-54
2021/12/01 12:28:40;;;;;;;4.33;1.00;;;9.80;99.90;;;;;;4992543;28;20210;-53
2021/12/01 12:31:31;;;;;;;3.60;0.90;;;9.80;99.90;;;;;;4993518;28;20692;-52
2021/12/01 12:34:04;;;;;;;4.40;0.90;;;9.90;99.90;;;;;;4993588;28;20211;-51
2021/12/01 12:36:37;;;;;;;4.50;0.90;;;10.00;99.90;;;;;;4993668;28;20261;-52
2021/12/01 12:39:10;;;;;;;5.37;1.50;;;9.80;99.90;;;;;;4973727;28;20236;-52
2021/12/01 12:41:55;;;;;;;3.20;0.77;;;9.80;99.90;;;;;;4989369;28;20476;-51
2021/12/01 12:44:46;;;;;;;2.23;0.90;;;9.80;99.90;;;;;;4991896;28;20249;-52
2021/12/01 12:47:27;;;;;;;4.67;0.97;;;9.80;99.90;;;;;;5018571;28;20711;-54
2021/12/01 12:50:15;;;;;;;6.07;1.07;;;9.80;99.90;;;;;;5032111;28;20206;-52
2021/12/01 12:52:47;;;;;;;4.40;1.00;;;9.80;99.90;;;;;;5029755;28;20694;-53
2021/12/01 12:55:23;;;;;;;4.90;0.70;;;9.80;99.90;;;;;;5026087;28;20210;-54
2021/12/01 12:57:58;;;;;;;2.70;1.00;;;9.70;99.90;;;;;;5031323;28;20258;-52
2021/12/01 13:00:45;;;;;;;3.37;0.83;;;9.60;99.90;;;;;;5029609;28;20505;-54
2021/12/01 13:03:24;;;;;;;7.67;1.23;;;9.60;99.90;;;;;;5032936;28;20203;-53
2021/12/01 13:05:54;;;;;;;2.90;0.93;;;9.50;99.90;;;;;;5030342;28;20239;-53
2021/12/01 13:08:40;;;;;;;7.10;2.00;;;9.50;99.90;;;;;;5030351;28;20276;-55
2021/12/01 13:11:15;;;;;;;5.53;1.07;;;9.50;99.90;;;;;;5031419;28;20211;-54
2021/12/01 13:13:45;;;;;;;3.53;0.90;;;9.50;99.90;;;;;;5033502;28;20647;-52
2021/12/01 13:16:15;;;;;;;4.83;0.83;;;9.50;99.90;;;;;;5033858;28;20210;-55
2021/12/01 13:18:44;;;;;;;4.57;0.70;;;9.60;99.90;;;;;;5033879;28;20656;-53